sensor_id;sensor_type;location;lat;lon;timestamp;P1;durP1;ratioP1;P2;durP2;ratioP2
73859;SDS011;62197;51.632;13.700;2023-02-28T00:00:05;8.88;;;3.50;;
73859;SDS011;62197;51.632;13.700;2023-02-28T00:02:34;8.65;;;3.28;;
73859;SDS011;62197;51.632;13.700;2023-02-28T00:05:00;10.85;;;3.63;;
73859;SDS011;62197;51.632;13.700;2023-02-28T00:07:28;9.95;;;3.88;;
73859;SDS011;62197;51.632;13.700;2023-02-28T00:12:19;8.43;;;2.90;;
73859;SDS011;62197;51.632;13.700;2023-02-28T00:14:45;8.80;;;3.85;;
73859;SDS011;62197;51.632;13.700;2023-02-28T00:17:10;7.88;;;2.88;;
73859;SDS011;62197;51.632;13.700;2023-02-28T00:19:35;8.02;;;3.72;;
73859;SDS011;62197;51.632;13.700;2023-02-28T00:22:01;6.05;;;2.85;;
73859;SDS011;62197;51.632;13.700;2023-02-28T00:24:26;6.57;;;2.47;;
73859;SDS011;62197;51.632;13.700;2023-02-28T00:26:51;5.63;;;2.20;;
73859;SDS011;62197;51.632;13.700;2023-02-28T00:29:17;6.28;;;2.97;;
73859;SDS011;62197;51.632;13.700;2023-02-28T00:31:42;6.00;;;2.63;;
73859;SDS011;62197;51.632;13.700;2023-02-28T00:34:07;6.32;;;3.05;;
73859;SDS011;62197;51.632;13.700;2023-02-28T00:36:33;5.35;;;3.05;;
73859;SDS011;62197;51.632;13.700;2023-02-28T00:38:58;7.50;;;2.80;;
73859;SDS011;62197;51.632;13.700;2023-02-28T00:41:23;5.70;;;2.25;;
73859;SDS011;62197;51.632;13.700;2023-02-28T00:43:49;7.65;;;2.70;;
73859;SDS011;62197;51.632;13.700;2023-02-28T00:46:14;5.30;;;2.75;;
73859;SDS011;62197;51.632;13.700;2023-02-28T00:48:39;4.90;;;2.22;;
73859;SDS011;62197;51.632;13.700;2023-02-28T00:51:05;6.07;;;2.38;;
73859;SDS011;62197;51.632;13.700;2023-02-28T00:53:30;7.53;;;2.70;;
73859;SDS011;62197;51.632;13.700;2023-02-28T00:55:57;4.88;;;2.30;;
73859;SDS011;62197;51.632;13.700;2023-02-28T00:58:23;6.18;;;2.70;;
73859;SDS011;62197;51.632;13.700;2023-02-28T01:00:48;6.88;;;2.63;;
73859;SDS011;62197;51.632;13.700;2023-02-28T01:03:14;5.60;;;2.22;;
73859;SDS011;62197;51.632;13.700;2023-02-28T01:05:41;6.60;;;2.80;;
73859;SDS011;62197;51.632;13.700;2023-02-28T01:08:06;5.68;;;2.35;;
73859;SDS011;62197;51.632;13.700;2023-02-28T01:10:32;4.97;;;2.00;;
73859;SDS011;62197;51.632;13.700;2023-02-28T01:12:57;5.50;;;2.47;;
73859;SDS011;62197;51.632;13.700;2023-02-28T01:15:23;4.10;;;1.95;;
73859;SDS011;62197;51.632;13.700;2023-02-28T01:17:48;5.90;;;2.45;;
73859;SDS011;62197;51.632;13.700;2023-02-28T01:20:13;7.78;;;2.63;;
73859;SDS011;62197;51.632;13.700;2023-02-28T01:22:39;5.30;;;2.17;;
73859;SDS011;62197;51.632;13.700;2023-02-28T01:25:05;6.70;;;3.10;;
73859;SDS011;62197;51.632;13.700;2023-02-28T01:27:30;6.05;;;2.50;;
73859;SDS011;62197;51.632;13.700;2023-02-28T01:29:55;7.15;;;2.40;;
73859;SDS011;62197;51.632;13.700;2023-02-28T01:32:21;4.50;;;2.45;;
73859;SDS011;62197;51.632;13.700;2023-02-28T01:34:46;4.00;;;1.70;;
73859;SDS011;62197;51.632;13.700;2023-02-28T01:37:11;7.03;;;2.40;;
73859;SDS011;62197;51.632;13.700;2023-02-28T01:39:37;6.07;;;2.08;;
73859;SDS011;62197;51.632;13.700;2023-02-28T01:42:02;3.83;;;2.00;;
73859;SDS011;62197;51.632;13.700;2023-02-28T01:47:32;4.20;;;2.40;;
73859;SDS011;62197;51.632;13.700;2023-02-28T01:50:02;4.32;;;1.83;;
73859;SDS011;62197;51.632;13.700;2023-02-28T01:52:30;7.38;;;2.47;;
73859;SDS011;62197;51.632;13.700;2023-02-28T01:54:58;6.47;;;2.28;;
73859;SDS011;62197;51.632;13.700;2023-02-28T01:57:27;6.18;;;1.98;;
73859;SDS011;62197;51.632;13.700;2023-02-28T01:59:57;4.00;;;2.40;;
73859;SDS011;62197;51.632;13.700;2023-02-28T02:02:29;5.75;;;2.40;;
73859;SDS011;62197;51.632;13.700;2023-02-28T02:07:26;5.43;;;1.90;;
73859;SDS011;62197;51.632;13.700;2023-02-28T02:10:01;7.30;;;1.83;;
73859;SDS011;62197;51.632;13.700;2023-02-28T02:15:39;3.72;;;1.83;;
73859;SDS011;62197;51.632;13.700;2023-02-28T02:21:16;3.22;;;1.80;;
73859;SDS011;62197;51.632;13.700;2023-02-28T02:26:44;5.32;;;1.85;;
73859;SDS011;62197;51.632;13.700;2023-02-28T02:29:23;3.85;;;2.10;;
73859;SDS011;62197;51.632;13.700;2023-02-28T02:32:10;6.40;;;2.15;;
73859;SDS011;62197;51.632;13.700;2023-02-28T02:34:54;5.38;;;1.88;;
73859;SDS011;62197;51.632;13.700;2023-02-28T02:37:27;6.88;;;2.30;;
73859;SDS011;62197;51.632;13.700;2023-02-28T02:45:12;5.93;;;2.28;;
73859;SDS011;62197;51.632;13.700;2023-02-28T02:47:38;7.65;;;2.40;;
73859;SDS011;62197;51.632;13.700;2023-02-28T02:50:06;4.82;;;2.70;;
73859;SDS011;62197;51.632;13.700;2023-02-28T02:52:37;6.65;;;2.63;;
73859;SDS011;62197;51.632;13.700;2023-02-28T02:55:06;5.90;;;2.75;;
73859;SDS011;62197;51.632;13.700;2023-02-28T02:57:38;7.72;;;2.50;;
73859;SDS011;62197;51.632;13.700;2023-02-28T03:00:27;6.07;;;2.50;;
73859;SDS011;62197;51.632;13.700;2023-02-28T03:02:57;7.78;;;2.08;;
73859;SDS011;62197;51.632;13.700;2023-02-28T03:05:25;5.90;;;2.17;;
73859;SDS011;62197;51.632;13.700;2023-02-28T03:07:55;5.47;;;2.33;;
73859;SDS011;62197;51.632;13.700;2023-02-28T03:10:27;6.32;;;3.08;;
73859;SDS011;62197;51.632;13.700;2023-02-28T03:13:11;8.35;;;2.75;;
73859;SDS011;62197;51.632;13.700;2023-02-28T03:15:58;5.55;;;2.33;;
73859;SDS011;62197;51.632;13.700;2023-02-28T03:22:04;5.10;;;2.10;;
73859;SDS011;62197;51.632;13.700;2023-02-28T03:24:43;5.88;;;2.53;;
73859;SDS011;62197;51.632;13.700;2023-02-28T03:27:31;10.20;;;3.38;;
73859;SDS011;62197;51.632;13.700;2023-02-28T03:30:16;4.90;;;2.50;;
73859;SDS011;62197;51.632;13.700;2023-02-28T03:32:56;6.10;;;2.53;;
73859;SDS011;62197;51.632;13.700;2023-02-28T03:35:30;5.40;;;2.78;;
73859;SDS011;62197;51.632;13.700;2023-02-28T03:38:22;9.00;;;3.53;;
73859;SDS011;62197;51.632;13.700;2023-02-28T03:41:01;6.28;;;3.00;;
73859;SDS011;62197;51.632;13.700;2023-02-28T03:43:32;6.82;;;2.63;;
73859;SDS011;62197;51.632;13.700;2023-02-28T03:46:04;8.82;;;3.55;;
73859;SDS011;62197;51.632;13.700;2023-02-28T03:48:41;6.63;;;2.55;;
73859;SDS011;62197;51.632;13.700;2023-02-28T03:51:10;6.13;;;3.38;;
73859;SDS011;62197;51.632;13.700;2023-02-28T03:53:40;7.95;;;2.80;;
73859;SDS011;62197;51.632;13.700;2023-02-28T03:56:26;6.60;;;2.78;;
73859;SDS011;62197;51.632;13.700;2023-02-28T03:59:00;6.13;;;2.63;;
73859;SDS011;62197;51.632;13.700;2023-02-28T04:01:33;6.55;;;2.92;;
73859;SDS011;62197;51.632;13.700;2023-02-28T04:04:03;5.68;;;2.72;;
73859;SDS011;62197;51.632;13.700;2023-02-28T04:06:30;6.97;;;2.30;;
73859;SDS011;62197;51.632;13.700;2023-02-28T04:08:56;7.45;;;3.10;;
73859;SDS011;62197;51.632;13.700;2023-02-28T04:11:23;7.45;;;2.92;;
73859;SDS011;62197;51.632;13.700;2023-02-28T04:13:56;8.18;;;2.95;;
73859;SDS011;62197;51.632;13.700;2023-02-28T04:16:22;7.47;;;2.50;;
73859;SDS011;62197;51.632;13.700;2023-02-28T04:18:47;9.40;;;2.70;;
73859;SDS011;62197;51.632;13.700;2023-02-28T04:21:12;8.63;;;3.35;;
73859;SDS011;62197;51.632;13.700;2023-02-28T04:23:38;8.70;;;3.30;;
73859;SDS011;62197;51.632;13.700;2023-02-28T04:26:03;7.45;;;3.28;;
73859;SDS011;62197;51.632;13.700;2023-02-28T04:28:30;7.80;;;3.28;;
73859;SDS011;62197;51.632;13.700;2023-02-28T04:30:56;10.27;;;3.60;;
73859;SDS011;62197;51.632;13.700;2023-02-28T04:33:24;7.38;;;3.67;;
73859;SDS011;62197;51.632;13.700;2023-02-28T04:35:57;8.68;;;3.00;;
73859;SDS011;62197;51.632;13.700;2023-02-28T04:38:24;6.82;;;3.10;;
73859;SDS011;62197;51.632;13.700;2023-02-28T04:40:49;7.07;;;2.90;;
73859;SDS011;62197;51.632;13.700;2023-02-28T04:43:15;7.45;;;3.47;;
73859;SDS011;62197;51.632;13.700;2023-02-28T04:45:40;4.55;;;2.65;;
73859;SDS011;62197;51.632;13.700;2023-02-28T04:48:05;7.82;;;3.00;;
73859;SDS011;62197;51.632;13.700;2023-02-28T04:50:31;9.52;;;4.10;;
73859;SDS011;62197;51.632;13.700;2023-02-28T04:52:56;8.57;;;2.80;;
73859;SDS011;62197;51.632;13.700;2023-02-28T04:55:21;8.50;;;3.60;;
73859;SDS011;62197;51.632;13.700;2023-02-28T04:57:47;7.25;;;3.22;;
73859;SDS011;62197;51.632;13.700;2023-02-28T05:00:13;6.38;;;3.03;;
73859;SDS011;62197;51.632;13.700;2023-02-28T05:02:41;6.47;;;3.22;;
73859;SDS011;62197;51.632;13.700;2023-02-28T05:05:07;9.13;;;3.63;;
73859;SDS011;62197;51.632;13.700;2023-02-28T05:07:32;5.05;;;3.15;;
73859;SDS011;62197;51.632;13.700;2023-02-28T05:09:57;7.78;;;2.90;;
73859;SDS011;62197;51.632;13.700;2023-02-28T05:12:23;9.68;;;3.50;;
73859;SDS011;62197;51.632;13.700;2023-02-28T05:14:48;7.75;;;3.00;;
73859;SDS011;62197;51.632;13.700;2023-02-28T05:17:13;7.55;;;3.20;;
73859;SDS011;62197;51.632;13.700;2023-02-28T05:19:39;7.55;;;3.53;;
73859;SDS011;62197;51.632;13.700;2023-02-28T05:22:04;10.80;;;3.80;;
73859;SDS011;62197;51.632;13.700;2023-02-28T05:24:29;8.00;;;3.38;;
73859;SDS011;62197;51.632;13.700;2023-02-28T05:26:55;9.35;;;3.75;;
73859;SDS011;62197;51.632;13.700;2023-02-28T05:29:20;10.18;;;4.75;;
73859;SDS011;62197;51.632;13.700;2023-02-28T05:31:46;11.18;;;4.57;;
73859;SDS011;62197;51.632;13.700;2023-02-28T05:34:11;11.10;;;4.80;;
73859;SDS011;62197;51.632;13.700;2023-02-28T05:36:37;10.93;;;5.13;;
73859;SDS011;62197;51.632;13.700;2023-02-28T05:39:05;8.52;;;4.55;;
73859;SDS011;62197;51.632;13.700;2023-02-28T05:41:32;7.95;;;4.65;;
73859;SDS011;62197;51.632;13.700;2023-02-28T05:43:57;15.57;;;6.82;;
73859;SDS011;62197;51.632;13.700;2023-02-28T05:46:23;21.80;;;8.40;;
73859;SDS011;62197;51.632;13.700;2023-02-28T05:48:48;16.63;;;7.97;;
73859;SDS011;62197;51.632;13.700;2023-02-28T05:51:14;20.88;;;8.15;;
73859;SDS011;62197;51.632;13.700;2023-02-28T05:53:39;20.20;;;9.20;;
73859;SDS011;62197;51.632;13.700;2023-02-28T05:56:05;16.02;;;7.00;;
73859;SDS011;62197;51.632;13.700;2023-02-28T05:58:30;13.25;;;6.32;;
73859;SDS011;62197;51.632;13.700;2023-02-28T06:00:56;15.43;;;6.72;;
73859;SDS011;62197;51.632;13.700;2023-02-28T06:03:22;15.10;;;6.13;;
73859;SDS011;62197;51.632;13.700;2023-02-28T06:05:48;12.85;;;5.63;;
73859;SDS011;62197;51.632;13.700;2023-02-28T06:08:13;14.93;;;5.75;;
73859;SDS011;62197;51.632;13.700;2023-02-28T06:10:38;14.63;;;5.28;;
73859;SDS011;62197;51.632;13.700;2023-02-28T06:13:04;12.18;;;4.85;;
73859;SDS011;62197;51.632;13.700;2023-02-28T06:15:30;12.23;;;4.90;;
73859;SDS011;62197;51.632;13.700;2023-02-28T06:17:56;11.10;;;5.28;;
73859;SDS011;62197;51.632;13.700;2023-02-28T06:20:22;11.60;;;5.13;;
73859;SDS011;62197;51.632;13.700;2023-02-28T06:22:48;14.00;;;5.95;;
73859;SDS011;62197;51.632;13.700;2023-02-28T06:25:15;11.02;;;5.43;;
73859;SDS011;62197;51.632;13.700;2023-02-28T06:27:41;10.80;;;5.30;;
73859;SDS011;62197;51.632;13.700;2023-02-28T06:30:06;12.10;;;5.25;;
73859;SDS011;62197;51.632;13.700;2023-02-28T06:32:32;14.70;;;5.95;;
73859;SDS011;62197;51.632;13.700;2023-02-28T06:34:57;21.30;;;7.78;;
73859;SDS011;62197;51.632;13.700;2023-02-28T06:37:23;17.08;;;8.05;;
73859;SDS011;62197;51.632;13.700;2023-02-28T06:39:51;18.95;;;7.55;;
73859;SDS011;62197;51.632;13.700;2023-02-28T06:42:16;11.93;;;5.13;;
73859;SDS011;62197;51.632;13.700;2023-02-28T06:44:41;17.33;;;6.80;;
73859;SDS011;62197;51.632;13.700;2023-02-28T06:47:08;11.43;;;4.93;;
73859;SDS011;62197;51.632;13.700;2023-02-28T06:49:34;7.78;;;4.13;;
73859;SDS011;62197;51.632;13.700;2023-02-28T06:51:59;12.00;;;4.82;;
73859;SDS011;62197;51.632;13.700;2023-02-28T06:54:25;8.82;;;4.65;;
73859;SDS011;62197;51.632;13.700;2023-02-28T06:56:50;9.93;;;4.20;;
73859;SDS011;62197;51.632;13.700;2023-02-28T06:59:16;9.60;;;3.90;;
73859;SDS011;62197;51.632;13.700;2023-02-28T07:01:41;7.53;;;4.05;;
73859;SDS011;62197;51.632;13.700;2023-02-28T07:04:07;7.22;;;3.97;;
73859;SDS011;62197;51.632;13.700;2023-02-28T07:06:32;10.50;;;4.65;;
73859;SDS011;62197;51.632;13.700;2023-02-28T07:08:58;12.30;;;4.65;;
73859;SDS011;62197;51.632;13.700;2023-02-28T07:11:24;10.15;;;4.00;;
73859;SDS011;62197;51.632;13.700;2023-02-28T07:13:52;11.32;;;4.40;;
73859;SDS011;62197;51.632;13.700;2023-02-28T07:16:21;12.45;;;4.70;;
73859;SDS011;62197;51.632;13.700;2023-02-28T07:18:47;8.90;;;4.47;;
73859;SDS011;62197;51.632;13.700;2023-02-28T07:21:13;9.43;;;4.32;;
73859;SDS011;62197;51.632;13.700;2023-02-28T07:23:39;8.98;;;4.05;;
73859;SDS011;62197;51.632;13.700;2023-02-28T07:26:05;7.68;;;3.83;;
73859;SDS011;62197;51.632;13.700;2023-02-28T07:28:31;8.93;;;4.30;;
73859;SDS011;62197;51.632;13.700;2023-02-28T07:30:56;9.85;;;4.07;;
73859;SDS011;62197;51.632;13.700;2023-02-28T07:33:22;9.20;;;3.00;;
73859;SDS011;62197;51.632;13.700;2023-02-28T07:35:48;13.43;;;4.20;;
73859;SDS011;62197;51.632;13.700;2023-02-28T07:38:14;9.30;;;4.53;;
73859;SDS011;62197;51.632;13.700;2023-02-28T07:40:39;6.82;;;4.00;;
73859;SDS011;62197;51.632;13.700;2023-02-28T07:43:05;10.05;;;4.43;;
73859;SDS011;62197;51.632;13.700;2023-02-28T07:45:30;10.15;;;4.65;;
73859;SDS011;62197;51.632;13.700;2023-02-28T07:47:59;9.13;;;4.55;;
73859;SDS011;62197;51.632;13.700;2023-02-28T07:50:24;8.77;;;4.30;;
73859;SDS011;62197;51.632;13.700;2023-02-28T07:52:50;9.00;;;3.83;;
73859;SDS011;62197;51.632;13.700;2023-02-28T07:55:15;10.10;;;4.32;;
73859;SDS011;62197;51.632;13.700;2023-02-28T07:57:41;12.05;;;4.20;;
73859;SDS011;62197;51.632;13.700;2023-02-28T08:00:08;7.85;;;4.18;;
73859;SDS011;62197;51.632;13.700;2023-02-28T08:02:35;9.60;;;3.67;;
73859;SDS011;62197;51.632;13.700;2023-02-28T08:05:01;8.55;;;3.72;;
73859;SDS011;62197;51.632;13.700;2023-02-28T08:07:26;5.40;;;3.50;;
73859;SDS011;62197;51.632;13.700;2023-02-28T08:09:52;5.80;;;3.33;;
73859;SDS011;62197;51.632;13.700;2023-02-28T08:12:17;7.93;;;2.65;;
73859;SDS011;62197;51.632;13.700;2023-02-28T08:14:42;8.10;;;3.15;;
73859;SDS011;62197;51.632;13.700;2023-02-28T08:17:09;6.90;;;3.17;;
73859;SDS011;62197;51.632;13.700;2023-02-28T08:19:35;7.53;;;3.20;;
73859;SDS011;62197;51.632;13.700;2023-02-28T08:22:00;7.22;;;3.05;;
73859;SDS011;62197;51.632;13.700;2023-02-28T08:24:25;7.72;;;3.35;;
73859;SDS011;62197;51.632;13.700;2023-02-28T08:26:51;6.15;;;2.97;;
73859;SDS011;62197;51.632;13.700;2023-02-28T08:29:16;7.10;;;2.90;;
73859;SDS011;62197;51.632;13.700;2023-02-28T08:31:41;6.53;;;3.13;;
73859;SDS011;62197;51.632;13.700;2023-02-28T08:34:11;5.38;;;2.63;;
73859;SDS011;62197;51.632;13.700;2023-02-28T08:36:39;5.22;;;2.58;;
73859;SDS011;62197;51.632;13.700;2023-02-28T08:39:04;8.23;;;3.20;;
73859;SDS011;62197;51.632;13.700;2023-02-28T08:41:30;6.32;;;3.00;;
73859;SDS011;62197;51.632;13.700;2023-02-28T08:43:55;4.75;;;2.45;;
73859;SDS011;62197;51.632;13.700;2023-02-28T08:46:21;4.70;;;2.33;;
73859;SDS011;62197;51.632;13.700;2023-02-28T08:48:46;7.47;;;2.78;;
73859;SDS011;62197;51.632;13.700;2023-02-28T08:51:15;8.45;;;3.20;;
73859;SDS011;62197;51.632;13.700;2023-02-28T08:53:46;5.88;;;2.47;;
73859;SDS011;62197;51.632;13.700;2023-02-28T08:56:14;6.47;;;2.92;;
73859;SDS011;62197;51.632;13.700;2023-02-28T08:58:41;5.47;;;2.65;;
73859;SDS011;62197;51.632;13.700;2023-02-28T09:03:38;4.75;;;2.10;;
73859;SDS011;62197;51.632;13.700;2023-02-28T09:06:03;9.80;;;2.80;;
73859;SDS011;62197;51.632;13.700;2023-02-28T09:08:29;6.80;;;2.25;;
73859;SDS011;62197;51.632;13.700;2023-02-28T09:13:22;9.07;;;2.70;;
73859;SDS011;62197;51.632;13.700;2023-02-28T09:15:49;7.97;;;2.50;;
73859;SDS011;62197;51.632;13.700;2023-02-28T09:18:14;7.35;;;3.60;;
73859;SDS011;62197;51.632;13.700;2023-02-28T09:20:40;8.20;;;3.42;;
73859;SDS011;62197;51.632;13.700;2023-02-28T09:23:06;5.10;;;2.13;;
73859;SDS011;62197;51.632;13.700;2023-02-28T09:25:32;5.93;;;3.25;;
73859;SDS011;62197;51.632;13.700;2023-02-28T09:27:58;5.38;;;3.22;;
73859;SDS011;62197;51.632;13.700;2023-02-28T09:30:23;7.97;;;3.15;;
73859;SDS011;62197;51.632;13.700;2023-02-28T09:32:48;6.03;;;2.75;;
73859;SDS011;62197;51.632;13.700;2023-02-28T09:35:16;8.88;;;3.75;;
73859;SDS011;62197;51.632;13.700;2023-02-28T09:37:46;6.78;;;3.15;;
73859;SDS011;62197;51.632;13.700;2023-02-28T09:40:19;4.22;;;2.28;;
73859;SDS011;62197;51.632;13.700;2023-02-28T09:42:47;6.63;;;3.30;;
73859;SDS011;62197;51.632;13.700;2023-02-28T09:45:19;4.63;;;1.85;;
73859;SDS011;62197;51.632;13.700;2023-02-28T09:47:50;7.20;;;2.97;;
73859;SDS011;62197;51.632;13.700;2023-02-28T09:53:12;7.05;;;2.83;;
73859;SDS011;62197;51.632;13.700;2023-02-28T09:55:45;7.20;;;3.53;;
73859;SDS011;62197;51.632;13.700;2023-02-28T09:58:23;6.90;;;3.08;;
73859;SDS011;62197;51.632;13.700;2023-02-28T10:00:57;5.10;;;2.85;;
73859;SDS011;62197;51.632;13.700;2023-02-28T10:03:30;5.47;;;2.97;;
73859;SDS011;62197;51.632;13.700;2023-02-28T10:06:12;4.88;;;2.65;;
73859;SDS011;62197;51.632;13.700;2023-02-28T10:11:39;5.97;;;2.92;;
73859;SDS011;62197;51.632;13.700;2023-02-28T10:14:09;4.93;;;2.20;;
73859;SDS011;62197;51.632;13.700;2023-02-28T10:16:46;5.68;;;2.90;;
73859;SDS011;62197;51.632;13.700;2023-02-28T10:19:25;3.75;;;2.97;;
73859;SDS011;62197;51.632;13.700;2023-02-28T10:21:59;6.25;;;2.92;;
73859;SDS011;62197;51.632;13.700;2023-02-28T10:24:40;6.18;;;2.90;;
73859;SDS011;62197;51.632;13.700;2023-02-28T10:27:14;7.85;;;3.40;;
73859;SDS011;62197;51.632;13.700;2023-02-28T10:29:43;6.18;;;2.95;;
73859;SDS011;62197;51.632;13.700;2023-02-28T10:32:11;7.18;;;3.03;;
73859;SDS011;62197;51.632;13.700;2023-02-28T10:34:40;6.65;;;2.22;;
73859;SDS011;62197;51.632;13.700;2023-02-28T10:37:05;7.50;;;2.88;;
73859;SDS011;62197;51.632;13.700;2023-02-28T10:45:04;5.47;;;2.90;;
73859;SDS011;62197;51.632;13.700;2023-02-28T10:47:37;7.18;;;3.05;;
73859;SDS011;62197;51.632;13.700;2023-02-28T10:50:26;4.70;;;2.40;;
73859;SDS011;62197;51.632;13.700;2023-02-28T10:53:07;5.47;;;2.50;;
73859;SDS011;62197;51.632;13.700;2023-02-28T10:55:41;7.45;;;2.70;;
73859;SDS011;62197;51.632;13.700;2023-02-28T11:00:45;5.28;;;3.03;;
73859;SDS011;62197;51.632;13.700;2023-02-28T11:03:23;5.47;;;3.05;;
73859;SDS011;62197;51.632;13.700;2023-02-28T11:05:50;7.55;;;3.72;;
73859;SDS011;62197;51.632;13.700;2023-02-28T11:10:46;7.28;;;3.03;;
73859;SDS011;62197;51.632;13.700;2023-02-28T11:13:19;9.40;;;3.53;;
73859;SDS011;62197;51.632;13.700;2023-02-28T11:15:51;4.82;;;3.05;;
73859;SDS011;62197;51.632;13.700;2023-02-28T11:18:55;9.20;;;3.85;;
73859;SDS011;62197;51.632;13.700;2023-02-28T11:21:26;7.05;;;3.53;;
73859;SDS011;62197;51.632;13.700;2023-02-28T11:24:02;5.03;;;3.13;;
73859;SDS011;62197;51.632;13.700;2023-02-28T11:26:41;7.28;;;3.63;;
73859;SDS011;62197;51.632;13.700;2023-02-28T11:29:09;4.28;;;2.72;;
73859;SDS011;62197;51.632;13.700;2023-02-28T11:35:00;6.60;;;3.30;;
73859;SDS011;62197;51.632;13.700;2023-02-28T11:37:39;6.95;;;3.00;;
73859;SDS011;62197;51.632;13.700;2023-02-28T11:40:05;7.15;;;3.42;;
73859;SDS011;62197;51.632;13.700;2023-02-28T11:42:42;6.38;;;3.15;;
73859;SDS011;62197;51.632;13.700;2023-02-28T11:45:22;9.32;;;3.65;;
73859;SDS011;62197;51.632;13.700;2023-02-28T11:53:49;7.22;;;3.28;;
73859;SDS011;62197;51.632;13.700;2023-02-28T12:04:47;5.50;;;3.15;;
73859;SDS011;62197;51.632;13.700;2023-02-28T12:10:25;6.15;;;3.70;;
73859;SDS011;62197;51.632;13.700;2023-02-28T12:12:56;7.50;;;3.20;;
73859;SDS011;62197;51.632;13.700;2023-02-28T12:18:34;6.75;;;3.45;;
73859;SDS011;62197;51.632;13.700;2023-02-28T12:26:53;6.38;;;3.13;;
73859;SDS011;62197;51.632;13.700;2023-02-28T12:29:30;6.25;;;3.17;;
73859;SDS011;62197;51.632;13.700;2023-02-28T12:32:09;7.35;;;2.95;;
73859;SDS011;62197;51.632;13.700;2023-02-28T12:34:44;5.25;;;3.15;;
73859;SDS011;62197;51.632;13.700;2023-02-28T12:37:16;7.38;;;3.08;;
73859;SDS011;62197;51.632;13.700;2023-02-28T12:39:49;5.03;;;3.50;;
73859;SDS011;62197;51.632;13.700;2023-02-28T12:42:24;5.90;;;3.47;;
73859;SDS011;62197;51.632;13.700;2023-02-28T12:44:55;8.23;;;4.10;;
73859;SDS011;62197;51.632;13.700;2023-02-28T12:47:45;6.68;;;3.25;;
73859;SDS011;62197;51.632;13.700;2023-02-28T12:50:20;5.78;;;3.15;;
73859;SDS011;62197;51.632;13.700;2023-02-28T12:52:55;9.00;;;3.58;;
73859;SDS011;62197;51.632;13.700;2023-02-28T12:58:14;8.43;;;3.10;;
73859;SDS011;62197;51.632;13.700;2023-02-28T13:01:04;6.47;;;3.20;;
73859;SDS011;62197;51.632;13.700;2023-02-28T13:08:51;5.95;;;3.40;;
73859;SDS011;62197;51.632;13.700;2023-02-28T13:11:28;6.53;;;3.42;;
73859;SDS011;62197;51.632;13.700;2023-02-28T13:13:57;8.85;;;3.53;;
73859;SDS011;62197;51.632;13.700;2023-02-28T13:16:27;6.55;;;3.92;;
73859;SDS011;62197;51.632;13.700;2023-02-28T13:18:53;7.05;;;3.38;;
73859;SDS011;62197;51.632;13.700;2023-02-28T13:21:41;7.10;;;3.30;;
73859;SDS011;62197;51.632;13.700;2023-02-28T13:24:08;5.72;;;3.20;;
73859;SDS011;62197;51.632;13.700;2023-02-28T13:32:18;7.63;;;3.25;;
73859;SDS011;62197;51.632;13.700;2023-02-28T13:34:46;10.43;;;4.05;;
73859;SDS011;62197;51.632;13.700;2023-02-28T13:42:41;6.13;;;2.57;;
73859;SDS011;62197;51.632;13.700;2023-02-28T13:47:29;6.22;;;2.90;;
73859;SDS011;62197;51.632;13.700;2023-02-28T13:58:23;7.88;;;3.60;;
73859;SDS011;62197;51.632;13.700;2023-02-28T14:06:31;6.72;;;3.22;;
73859;SDS011;62197;51.632;13.700;2023-02-28T14:09:02;6.05;;;4.50;;
73859;SDS011;62197;51.632;13.700;2023-02-28T14:11:48;6.68;;;3.25;;
73859;SDS011;62197;51.632;13.700;2023-02-28T14:17:01;5.25;;;2.83;;
73859;SDS011;62197;51.632;13.700;2023-02-28T14:19:29;8.02;;;3.65;;
73859;SDS011;62197;51.632;13.700;2023-02-28T14:30:07;5.57;;;2.97;;
73859;SDS011;62197;51.632;13.700;2023-02-28T14:32:47;5.72;;;2.72;;
73859;SDS011;62197;51.632;13.700;2023-02-28T14:38:05;6.32;;;2.70;;
73859;SDS011;62197;51.632;13.700;2023-02-28T14:40:38;7.00;;;3.42;;
73859;SDS011;62197;51.632;13.700;2023-02-28T14:43:04;7.03;;;2.90;;
73859;SDS011;62197;51.632;13.700;2023-02-28T14:45:33;5.95;;;3.05;;
73859;SDS011;62197;51.632;13.700;2023-02-28T14:48:01;6.25;;;2.88;;
73859;SDS011;62197;51.632;13.700;2023-02-28T14:50:30;4.90;;;2.60;;
73859;SDS011;62197;51.632;13.700;2023-02-28T14:52:57;8.57;;;2.95;;
73859;SDS011;62197;51.632;13.700;2023-02-28T14:55:25;5.35;;;2.53;;
73859;SDS011;62197;51.632;13.700;2023-02-28T14:57:56;6.88;;;3.00;;
73859;SDS011;62197;51.632;13.700;2023-02-28T15:00:25;6.75;;;3.55;;
73859;SDS011;62197;51.632;13.700;2023-02-28T15:02:53;5.63;;;2.55;;
73859;SDS011;62197;51.632;13.700;2023-02-28T15:05:27;6.32;;;3.25;;
73859;SDS011;62197;51.632;13.700;2023-02-28T15:08:02;6.03;;;3.08;;
73859;SDS011;62197;51.632;13.700;2023-02-28T15:10:37;7.32;;;3.30;;
73859;SDS011;62197;51.632;13.700;2023-02-28T15:13:08;7.80;;;2.83;;
73859;SDS011;62197;51.632;13.700;2023-02-28T15:21:34;6.40;;;2.72;;
73859;SDS011;62197;51.632;13.700;2023-02-28T15:26:52;8.00;;;3.15;;
73859;SDS011;62197;51.632;13.700;2023-02-28T15:29:22;5.45;;;2.60;;
73859;SDS011;62197;51.632;13.700;2023-02-28T15:32:20;5.32;;;2.25;;
73859;SDS011;62197;51.632;13.700;2023-02-28T15:34:47;4.53;;;2.50;;
73859;SDS011;62197;51.632;13.700;2023-02-28T15:40:03;8.13;;;2.72;;
73859;SDS011;62197;51.632;13.700;2023-02-28T15:45:47;4.32;;;2.38;;
73859;SDS011;62197;51.632;13.700;2023-02-28T15:48:16;5.05;;;2.65;;
73859;SDS011;62197;51.632;13.700;2023-02-28T15:50:47;7.97;;;3.03;;
73859;SDS011;62197;51.632;13.700;2023-02-28T15:53:17;5.20;;;2.70;;
73859;SDS011;62197;51.632;13.700;2023-02-28T15:55:51;5.93;;;2.63;;
73859;SDS011;62197;51.632;13.700;2023-02-28T15:58:19;7.45;;;2.58;;
73859;SDS011;62197;51.632;13.700;2023-02-28T16:00:59;6.35;;;2.45;;
73859;SDS011;62197;51.632;13.700;2023-02-28T16:03:39;8.63;;;2.90;;
73859;SDS011;62197;51.632;13.700;2023-02-28T16:08:52;8.13;;;3.35;;
73859;SDS011;62197;51.632;13.700;2023-02-28T16:13:43;6.15;;;2.95;;
73859;SDS011;62197;51.632;13.700;2023-02-28T16:16:14;8.38;;;2.67;;
73859;SDS011;62197;51.632;13.700;2023-02-28T16:18:40;6.45;;;2.40;;
73859;SDS011;62197;51.632;13.700;2023-02-28T16:21:06;7.13;;;2.72;;
73859;SDS011;62197;51.632;13.700;2023-02-28T16:23:31;5.32;;;2.90;;
73859;SDS011;62197;51.632;13.700;2023-02-28T16:25:56;6.22;;;3.42;;
73859;SDS011;62197;51.632;13.700;2023-02-28T16:28:26;7.78;;;2.90;;
73859;SDS011;62197;51.632;13.700;2023-02-28T16:30:57;6.80;;;3.30;;
73859;SDS011;62197;51.632;13.700;2023-02-28T16:33:27;13.02;;;4.30;;
73859;SDS011;62197;51.632;13.700;2023-02-28T16:35:52;6.90;;;3.85;;
73859;SDS011;62197;51.632;13.700;2023-02-28T16:38:18;8.30;;;3.92;;
73859;SDS011;62197;51.632;13.700;2023-02-28T16:40:44;6.75;;;3.83;;
73859;SDS011;62197;51.632;13.700;2023-02-28T16:43:13;10.05;;;3.90;;
73859;SDS011;62197;51.632;13.700;2023-02-28T16:45:42;8.25;;;3.78;;
73859;SDS011;62197;51.632;13.700;2023-02-28T16:48:10;8.57;;;4.32;;
73859;SDS011;62197;51.632;13.700;2023-02-28T16:50:38;7.03;;;3.90;;
73859;SDS011;62197;51.632;13.700;2023-02-28T16:53:04;8.27;;;4.20;;
73859;SDS011;62197;51.632;13.700;2023-02-28T16:55:29;10.82;;;4.63;;
73859;SDS011;62197;51.632;13.700;2023-02-28T16:57:55;11.50;;;3.90;;
73859;SDS011;62197;51.632;13.700;2023-02-28T17:00:25;7.90;;;5.53;;
73859;SDS011;62197;51.632;13.700;2023-02-28T17:02:52;12.07;;;5.80;;
73859;SDS011;62197;51.632;13.700;2023-02-28T17:07:44;11.52;;;5.10;;
73859;SDS011;62197;51.632;13.700;2023-02-28T17:12:40;10.07;;;4.03;;
73859;SDS011;62197;51.632;13.700;2023-02-28T17:15:06;10.63;;;4.03;;